メインページ
METAR-TAF:

METAR-TAF

空港 :

シント・マールテン, オランダ領アンティル

プリンセス・ジュリアナ国際空港

緯度: 18-03N, 経度: 063-07W, 海抜: 4m

METAR: 見つかりません

時間: 07:04 (11:04 UTC)

予報

当レポートは5時間44分前の05:20(UTC)に作成
予報は20日の 06時(UTC)から 21日の 06時(UTC)まで有効
南/南東の風 30kt、最大50ktの突風を伴う
視程: 3.2km
高度1500ftの雲は散在している
高度2500ftの曇り
激しいにわか雨
20日の 0800時(UTC)から
南/南東の風 15kt、最大30ktの突風を伴う
視程: 9.7km
高度2500ftの千切れ雲あり
弱いにわか雨
20日の 1400時(UTC)から
南東の風 15kt
視程: 10km
高度2500ftの雲は散在している
高度3500ftの千切れ雲あり
近辺でにわか雨

TAF: TNCM 200520Z 2006/2106 16030G50KT 2SM +SHRA SCT015 OVC025 FM200800 16015G30KT 6SM -SHRA BKN025 FM201400 14015KT P6SM VCSH SCT025 BKN035

4,000以上の空港の気象観測と天気予報(METAR報とTAF報)

利用可能な観測所は地図上に黄色い丸と赤い丸で示す。

丸の上にカーソルを重ねると観測所名を参照できる。

次にクリックすると気象観測と天気予報を参照できる。

マップの切り替え:黒色「×」印の緑ボタンをクリックして拡大、「-」印の緑ボタンをクリックして縮小、緑色の三角印をクリックして隣りの地図に切り替え


METAR-TAF: